Latest Weather Observations for Middle Point

IDD60801

Issued at 5:35 pm CST Sunday 31 August 2014 (issued every 30 minutes, with the page automatically refreshed every 10 minutes)

About weather observations | Map of weather stations | Latest weather observations for NT | Other Formats
Station Details ID: 014041 Name: MIDDLE POINT Lat: -12.61 Lon: 131.30 Height: 14.1 m
Data from the previous 72 hours. | See also: Recent months at Middle Point
Date/Time
CST
Temp
°C
App
Temp
°C
Dew
Point
Rel
Hum
%
Delta-T
°C
Wind Press
QNH
hPa
Press
MSL
hPa
Rain
since 9 am
mm
Dir
 
Spd
km/h
Gust
km/h
Spd
kts
Gust
kts
31/05:30pm 33.1 29.1 -2.6 10 16.7 SE 9 13 5 7 1009.4 1009.4 0.0
31/05:00pm 33.6 30.2 -2.2 10 16.9 SE 6 11 3 6 1009.4 1009.4 0.0
31/04:30pm 34.0 29.7 -1.9 10 17.1 E 11 17 6 9 1009.3 1009.3 0.0
31/04:00pm 34.1 28.8 -0.5 11 16.9 ESE 17 24 9 13 1009.5 1009.5 0.0
31/03:30pm 34.0 30.2 -0.6 11 16.8 ESE 9 19 5 10 1009.6 1009.6 0.0
31/03:00pm 33.9 28.6 -0.7 11 16.8 SSE 17 26 9 14 1009.9 1009.9 0.0
31/02:30pm 34.2 30.0 1.9 13 16.4 SE 13 22 7 12 1010.3 1010.3 0.0
31/02:00pm 34.1 29.2 1.8 13 16.3 SE 17 30 9 16 1010.9 1010.8 0.0
31/01:30pm 33.4 29.1 3.3 15 15.5 SSE 15 26 8 14 1011.3 1011.2 0.0
31/01:00pm 32.2 27.7 4.1 17 14.6 SE 17 28 9 15 1011.9 1011.8 0.0
31/12:30pm 32.6 29.2 6.0 19 14.3 SE 13 20 7 11 1012.5 1012.4 0.0
31/12:00pm 31.5 26.4 4.3 18 14.1 E 20 30 11 16 1013.3 1013.2 0.0
31/11:30am 30.7 26.4 5.2 20 13.4 E 17 26 9 14 1013.9 1013.8 0.0
31/11:00am 30.0 27.3 7.2 24 12.3 E 11 19 6 10 1014.6 1014.5 0.0
31/10:30am 28.8 26.8 10.0 31 10.6 ENE 11 22 6 12 1015.0 1014.9 0.0
31/10:00am 28.2 26.8 12.1 37 9.3 E 11 19 6 10 1015.3 1015.2 0.0
31/09:30am 25.8 27.3 18.0 62 4.9 NNE 7 11 4 6 1015.3 1015.2 0.0
31/09:00am 24.1 26.8 18.7 72 3.4 E 2 6 1 3 1015.2 1015.1 0.0
31/08:30am 20.2 21.8 16.8 81 2.1 S 4 6 2 3 1015.0 1014.9 0.0
31/08:00am 17.2 19.2 16.1 93 0.7 CALM 0 0 0 0 1014.7 1014.6 0.0
31/07:30am 13.7 14.4 12.3 91 0.8 CALM 0 0 0 0 1014.3 1014.2 0.0
31/07:00am 13.1 13.6 11.7 91 0.7 CALM 0 0 0 0 1014.0 1013.9 0.0
31/06:30am 13.2 13.8 11.9 92 0.7 CALM 0 0 0 0 1013.7 1013.6 0.0
31/06:00am 12.3 12.5 10.7 90 0.8 N 0 0 0 0 1013.4 1013.3 0.0
31/05:30am 12.9 13.2 11.0 88 1.0 CALM 0 0 0 0 1013.2 1013.1 0.0
31/05:00am 13.9 14.2 12.3 90 0.9 N 2 4 1 2 1013.0 1012.9 0.0
31/04:30am 13.2 12.9 11.3 88 1.0 N 4 6 2 3 1013.1 1013.0 0.0
31/04:00am 12.9 12.5 11.0 88 1.0 N 4 4 2 2 1013.2 1013.1 0.0
31/03:30am 12.9 12.6 11.3 90 0.8 NNE 4 4 2 2 1013.2 1013.1 0.0
31/03:00am 13.3 12.9 11.2 87 1.1 NNE 4 6 2 3 1013.3 1013.2 0.0
31/02:30am 14.2 13.7 12.2 88 1.1 NE 6 9 3 5 1013.6 1013.5 0.0
31/02:00am 14.0 14.6 11.9 87 1.1 CALM 0 0 0 0 1013.4 1013.3 0.0
31/01:30am 15.0 15.6 12.0 82 1.6 CALM 0 0 0 0 1013.5 1013.4 0.0
31/01:00am 15.0 15.6 11.8 81 1.7 CALM 0 0 0 0 1013.6 1013.5 0.0
31/12:30am 15.2 15.2 12.5 84 1.5 N 4 7 2 4 1013.6 1013.5 0.0
31/12:00am 16.1 15.8 12.8 81 1.8 N 6 7 3 4 1013.6 1013.5 0.0
 
Date/Time
CST
Temp
°C
App
Temp
°C
Dew
Point
Rel
Hum
%
Delta-T
°C
Wind Press
QNH
hPa
Press
MSL
hPa
Rain
since 9 am
mm
Dir
 
Spd
km/h
Gust
km/h
Spd
kts
Gust
kts
30/11:30pm 17.2 17.0 13.1 77 2.3 N 6 7 3 4 1013.6 1013.5 0.0
30/11:00pm 18.5 17.9 13.6 73 2.8 N 9 19 5 10 1013.4 1013.3 0.0
30/10:30pm 19.3 19.1 13.5 69 3.3 N 7 11 4 6 1013.3 1013.2 0.0
30/10:00pm 17.4 16.9 11.9 70 3.0 WNW 6 6 3 3 1012.8 1012.7 0.0
30/09:30pm 19.2 19.3 12.7 66 3.7 W 4 7 2 4 1012.9 1012.8 0.0
30/09:00pm 19.1 18.4 13.1 68 3.4 W 9 11 5 6 1012.7 1012.6 0.0
30/08:30pm 17.0 15.1 10.6 66 3.4 W 11 15 6 8 1012.3 1012.2 0.0
30/08:00pm 20.9 20.0 10.7 52 5.6 NW 6 7 3 4 1012.0 1011.9 0.0
30/07:30pm 22.7 21.4 11.4 49 6.3 N 9 9 5 5 1011.6 1011.5 0.0
30/07:00pm 21.8 20.1 9.7 46 6.5 NNW 9 11 5 6 1011.4 1011.3 0.0
30/06:30pm 26.1 24.5 8.6 33 9.5 N 7 9 4 5 1011.1 1011.0 0.0
30/06:00pm 29.6 26.4 8.6 27 11.6 N 15 19 8 10 1010.5 1010.5 0.0
30/05:30pm 32.8 29.4 -0.3 12 16.1 SE 7 9 4 5 1010.2 1010.2 0.0
30/05:00pm 33.3 28.9 0.1 12 16.2 SE 13 19 7 10 1010.0 1010.0 0.0
30/04:30pm 34.2 29.3 -0.4 11 16.9 SSE 15 22 8 12 1009.9 1009.9 0.0
30/04:00pm 34.0 30.0 0.6 12 16.6 SE 11 24 6 13 1009.9 1009.9 0.0
30/03:30pm 33.5 29.6 1.3 13 16.1 ESE 11 20 6 11 1010.1 1010.1 0.0
30/03:00pm 33.5 30.0 1.3 13 16.1 SSE 9 15 5 8 1010.5 1010.5 0.0
30/02:30pm 33.8 30.1 2.6 14 16.0 ESE 11 20 6 11 1011.0 1010.9 0.0
30/02:00pm 33.8 29.9 3.6 15 15.7 SE 13 26 7 14 1011.6 1011.5 0.0
30/01:30pm 33.4 29.1 3.3 15 15.5 E 15 22 8 12 1012.0 1011.9 0.0
30/01:00pm 32.6 29.0 6.7 20 14.1 SE 15 24 8 13 1012.8 1012.7 0.0
30/12:30pm 32.8 27.8 4.6 17 14.8 E 20 30 11 16 1013.4 1013.3 0.0
30/12:00pm 31.8 27.5 5.3 19 14.0 ESE 17 26 9 14 1014.2 1014.1 0.0
30/11:30am 31.7 28.1 6.7 21 13.5 ESE 15 26 8 14 1014.9 1014.8 0.0
30/11:00am 30.5 29.4 11.9 31 10.9 ESE 9 17 5 9 1015.5 1015.4 0.0
30/10:30am 28.5 28.2 13.2 39 9.0 ENE 7 13 4 7 1015.9 1015.8 0.0
30/10:00am 26.7 27.0 14.5 47 7.3 E 6 11 3 6 1016.2 1016.1 0.0
30/09:30am 24.4 26.3 17.6 66 4.2 SE 4 6 2 3 1016.2 1016.1 0.0
30/09:00am 20.7 22.6 17.7 83 1.8 SSE 4 6 2 3 1016.1 1016.0 0.0
30/08:30am 17.1 19.3 16.5 96 0.4 CALM 0 2 0 1 1015.8 1015.7 0.0
30/08:00am 15.4 16.2 14.8 96 0.3 SE 4 6 2 3 1015.6 1015.5 0.0
30/07:30am 13.6 14.2 13.0 96 0.3 SE 2 4 1 2 1015.1 1015.0 0.0
30/07:00am 11.5 11.7 10.6 94 0.5 CALM 0 0 0 0 1014.8 1014.7 0.0
30/06:30am 10.8 10.6 9.2 90 0.8 CALM 0 0 0 0 1014.5 1014.4 0.0
30/06:00am 10.7 9.8 9.1 90 0.8 NW 4 6 2 3 1014.5 1014.4 0.0
30/05:30am 12.0 11.9 10.7 92 0.7 N 2 4 1 2 1014.3 1014.2 0.0
30/05:00am 11.0 10.3 9.9 93 0.6 N 4 4 2 2 1014.1 1014.0 0.0
30/04:30am 9.9 9.0 7.8 87 1.0 N 2 4 1 2 1014.0 1013.9 0.0
30/04:00am 12.2 11.8 11.1 93 0.6 ENE 4 6 2 3 1014.0 1013.9 0.0
30/03:30am 12.0 11.7 10.1 88 1.0 NE 2 6 1 3 1013.9 1013.8 0.0
30/03:00am 13.1 12.9 11.8 92 0.7 NE 4 6 2 3 1013.9 1013.8 0.0
30/02:30am 13.5 14.2 12.2 92 0.7 CALM 0 4 0 2 1014.0 1013.9 0.0
30/02:00am 13.3 13.3 11.0 86 1.2 ENE 2 7 1 4 1014.1 1014.0 0.0
30/01:30am 14.2 13.7 12.1 87 1.1 NNE 6 6 3 3 1014.2 1014.1 0.0
30/01:00am 16.0 17.1 13.5 85 1.4 CALM 0 0 0 0 1014.3 1014.2 0.0
30/12:30am 16.4 16.4 14.2 87 1.3 W 7 9 4 5 1014.0 1013.9 0.0
30/12:00am 16.6 16.4 13.7 83 1.6 W 7 7 4 4 1014.2 1014.1 0.0
 
Date/Time
CST
Temp
°C
App
Temp
°C
Dew
Point
Rel
Hum
%
Delta-T
°C
Wind Press
QNH
hPa
Press
MSL
hPa
Rain
since 9 am
mm
Dir
 
Spd
km/h
Gust
km/h
Spd
kts
Gust
kts
29/11:30pm 16.0 15.2 12.9 82 1.7 W 9 9 5 5 1014.3 1014.2 0.0
29/11:00pm 15.5 14.2 9.8 69 3.0 W 7 9 4 5 1014.2 1014.1 0.0
29/10:30pm 17.8 17.3 12.7 72 2.8 W 7 9 4 5 1014.1 1014.0 0.0
29/10:00pm 17.1 16.2 11.4 69 3.1 W 7 7 4 4 1014.2 1014.1 0.0
29/09:30pm 17.4 15.8 10.3 63 3.8 W 9 9 5 5 1014.0 1013.9 0.0
29/09:00pm 16.8 15.8 10.4 66 3.4 W 6 7 3 4 1013.7 1013.6 0.0
29/08:30pm 16.9 15.8 9.8 63 3.7 WNW 6 7 3 4 1013.4 1013.3 0.0
29/08:00pm 18.2 17.1 8.5 53 5.0 NW 4 6 2 3 1013.0 1012.9 0.0
29/07:30pm 19.6 17.5 6.7 43 6.5 NNW 7 9 4 5 1012.8 1012.7 0.0
29/07:00pm 23.3 20.5 7.0 35 8.4 NNW 11 13 6 7 1012.5 1012.4 0.0
29/06:30pm 26.0 23.0 3.9 24 11.0 N 9 11 5 6 1012.2 1012.1 0.0
29/06:00pm 29.3 26.0 2.5 18 13.3 N 9 20 5 11 1011.6 1011.5 0.0
29/05:30pm 32.5 29.0 -3.0 10 16.4 SSE 6 9 3 5 1011.3 1011.2 0.0
29/05:00pm 33.5 30.3 -3.7 9 17.1 E 4 9 2 5 1011.3 1011.2 0.0
29/04:30pm 33.1 29.3 -4.0 9 16.9 SE 7 15 4 8 1011.4 1011.3 0.0
29/04:00pm 34.0 30.3 -3.3 9 17.3 SE 7 15 4 8 1011.6 1011.5 0.0
29/03:30pm 33.4 28.1 -3.7 9 17.1 SSE 15 22 8 12 1012.0 1011.9 0.0
29/03:00pm 33.1 28.1 -4.0 9 16.9 ESE 13 24 7 13 1012.1 1012.0 0.0
29/02:30pm 33.3 27.2 -3.8 9 17.0 SSE 19 30 10 16 1012.3 1012.2 0.0
29/02:00pm 32.3 27.4 -3.2 10 16.3 ESE 13 24 7 13 1012.6 1012.5 0.0
29/01:30pm 32.6 27.8 -2.9 10 16.4 SE 13 30 7 16 1013.0 1012.9 0.0
29/01:00pm 32.3 28.0 -1.9 11 16.1 ESE 11 22 6 12 1013.6 1013.5 0.0
29/12:30pm 32.1 26.6 -2.0 11 16.0 SE 17 30 9 16 1014.1 1014.0 0.0
29/12:00pm 31.1 27.0 2.3 16 14.4 SE 13 19 7 10 1014.6 1014.5 0.0
29/11:30am 30.7 26.1 3.7 18 13.8 E 17 28 9 15 1015.1 1015.0 0.0
29/11:00am 30.1 25.6 4.0 19 13.4 ESE 17 30 9 16 1015.5 1015.4 0.0
29/10:30am 28.3 25.9 8.6 29 10.8 SE 11 17 6 9 1015.8 1015.7 0.0
29/10:00am 27.0 26.7 13.4 43 8.0 S 7 9 4 5 1016.1 1016.0 0.0
29/09:30am 25.2 25.2 12.4 45 7.4 SSE 4 11 2 6 1016.2 1016.1 0.0
29/09:00am 22.6 22.2 12.3 52 5.8 SSE 6 7 3 4 1016.0 1015.9 0.0
29/08:30am 19.6 19.2 12.4 63 4.0 S 6 7 3 4 1016.0 1015.9 0.0
29/08:00am 16.3 17.2 13.0 81 1.8 CALM 0 0 0 0 1015.7 1015.6 0.0
29/07:30am 13.3 13.4 11.4 88 1.0 SSE 2 4 1 2 1015.5 1015.4 0.0
29/07:00am 12.1 12.2 10.0 87 1.1 CALM 0 0 0 0 1015.2 1015.1 0.0
29/06:30am 12.0 12.1 10.1 88 1.0 CALM 0 0 0 0 1014.9 1014.8 0.0
29/06:00am 11.6 11.6 9.9 89 0.9 CALM 0 0 0 0 1014.5 1014.4 0.0
29/05:30am 11.6 11.4 9.2 85 1.2 CALM 0 0 0 0 1014.1 1014.0 0.0
29/05:00am 12.3 12.4 10.0 86 1.2 CALM 0 0 0 0 1013.9 1013.8 0.0
29/04:30am 11.6 10.4 9.5 87 1.1 W 6 7 3 4 1013.8 1013.7 0.0
29/04:00am 12.8 12.1 10.0 83 1.4 SW 4 6 2 3 1013.6 1013.5 0.0
29/03:30am 12.5 11.3 10.2 86 1.2 SW 7 9 4 5 1013.8 1013.7 0.0
29/03:00am 12.2 12.3 10.1 87 1.1 CALM 0 0 0 0 1013.7 1013.6 0.0
29/02:30am 12.2 12.1 9.4 83 1.4 CALM 0 0 0 0 1013.8 1013.7 0.0
29/02:00am 13.5 13.0 9.2 75 2.2 E 2 6 1 3 1013.9 1013.8 0.0
29/01:30am 14.4 14.1 10.2 76 2.2 ENE 2 9 1 5 1014.2 1014.1 0.0
29/01:00am 14.7 14.8 11.5 81 1.7 S 2 7 1 4 1014.1 1014.0 0.0
29/12:30am 13.5 13.3 9.2 75 2.2 CALM 0 0 0 0 1014.1 1014.0 0.0
29/12:00am 13.5 12.8 8.6 72 2.5 SW 2 4 1 2 1014.3 1014.2 0.0
 
Date/Time
CST
Temp
°C
App
Temp
°C
Dew
Point
Rel
Hum
%
Delta-T
°C
Wind Press
QNH
hPa
Press
MSL
hPa
Rain
since 9 am
mm
Dir
 
Spd
km/h
Gust
km/h
Spd
kts
Gust
kts
28/11:30pm 15.7 15.1 8.9 64 3.5 SW 2 4 1 2 1014.4 1014.3 0.0
28/11:00pm 15.3 14.3 9.0 66 3.2 WSW 4 4 2 2 1014.5 1014.4 0.0
28/10:30pm 14.8 13.1 8.5 66 3.2 WSW 7 7 4 4 1014.4 1014.3 0.0
28/10:00pm 15.3 13.6 8.3 63 3.5 W 7 9 4 5 1014.2 1014.1 0.0
28/09:30pm 16.0 14.8 8.0 59 4.0 SW 4 7 2 4 1013.9 1013.8 0.0
28/09:00pm 15.6 13.9 7.4 58 4.1 WSW 6 7 3 4 1013.7 1013.6 0.0
28/08:30pm 17.2 16.3 7.8 54 4.8 NNW 2 4 1 2 1013.5 1013.4 0.0
28/08:00pm 17.5 15.5 6.1 47 5.6 WNW 6 9 3 5 1013.3 1013.2 0.0
28/07:30pm 21.2 19.0 6.3 38 7.5 N 7 9 4 5 1012.7 1012.6 0.0
28/07:00pm 22.0 19.2 5.0 33 8.4 N 9 13 5 7 1012.3 1012.2 0.0
28/06:30pm 24.8 21.5 4.5 27 10.1 N 11 15 6 8 1012.0 1011.9 0.0
28/06:00pm 28.2 24.5 4.5 22 12.1 N 13 17 7 9 1011.6 1011.5 0.0

Other Formats:

Comma delimited format used in spreadsheet applications
http://www.bom.gov.au/fwo/IDD60801/IDD60801.95121.axf

JavaScript Object Notation format (JSON) in row-major order
http://www.bom.gov.au/fwo/IDD60801/IDD60801.95121.json